Tropical Cyclones
[Index]
Main Index Home Page Stock Weather Photos Extreme Storms Discussion Storm News and Storm Chasing Reports Tropical Cyclones / Hurricanes / Typhoons Weather Data and Links Wild Fires / Bushfires Weather Observation Techniques Weather Picture Catalogue Tornado Pictures and Reports Stock Video Footage and DVDs for sale
Season 2019-2020 Tropical Cyclone ESAMI Track Map
Season 2019-2020 Summaries (Operational Data): [AU] [SIO] [SPAC] [SH]
<<- Previous TC | 2019-2020 Season | Next TC ->>

click for intensity scale information  Lat/long Grid: Show Hide

 Date Labels: Show Hide

Operational Tropical Cyclone Data

Name: ESAMI
Number: 2011

21 Jan 2020 12:00 UTC to 27 Jan 2020 06:00 UTC

    date/time    lat    long     hPa   cat  kts
2020-01-21 12   19.8    51.7    1004         20          
2020-01-21 18   19.8    52.8    1004         20          
2020-01-22 00   19.5    53.6    1007         20          
2020-01-22 06   18.9    54.3    1007         20          
2020-01-22 12   18.9    55.7    1001         20          
2020-01-22 18   19.0    57.0    1005         20          
2020-01-23 00   19.7    58.3    1002         20          
2020-01-23 06   20.8    60.2    1002         20          
2020-01-23 12   21.2    62.4    1002         20          
2020-01-23 18   21.6    63.4    1004         20          
2020-01-24 00   21.9    64.4    1001         30          
2020-01-24 06   22.3    67.2     998    1    35          
2020-01-24 12   22.8    68.9     998    1    35          
2020-01-24 18   23.2    70.6    1001    1    40          
2020-01-25 00   23.7    71.8     997    1    45          
2020-01-25 06   24.2    72.7     999    1    45          
2020-01-25 12   24.8    73.7     999    1    40          
2020-01-25 18   25.6    74.6     998    1    40          
2020-01-26 00   26.5    75.2     997    1    40          
2020-01-26 06   27.6    76.3     997    1    40          
2020-01-26 12   28.6    77.1     991    1    35          
2020-01-26 18   29.8    77.9     993         30          
2020-01-27 00   30.2    78.6     996         25          
2020-01-27 06   30.2    78.9    1004         25          
Winds are 10-min average.

Tropical cyclone tracks developed by Michael Bath using operational warnings and advisories and Google Maps.


[Australian Severe Weather index] [Copyright Notice] [Email Contacts] [Search This Site] [Privacy Policy]
Document: tropical_cyclone_esami.htm Updated: 11 March 2020